Time;durP1;ratioP1;P1;durP2;ratioP2;P2;SDS_P1;SDS_P2;PMS_P1;PMS_P2;Temp;Humidity;BMP_temperature;BMP_pressure;BME280_temperature;BME280_humidity;BME280_pressure;Samples;Min_cycle;Max_cycle;Signal;HPM_P1;HPM_P2
2021/08/14 00:02:12;;;;;;;9.07;3.95;;;;;;;16.37;72.33;101955.69;4979496;28;20271;-74
2021/08/14 00:04:38;;;;;;;10.50;4.70;;;;;;;16.34;72.42;101957.66;4996246;28;20088;-74
2021/08/14 00:07:04;;;;;;;11.82;4.50;;;;;;;16.35;72.25;101953.25;5002669;28;20031;-74
2021/08/14 00:09:29;;;;;;;9.48;4.95;;;;;;;16.34;72.04;101952.41;4994271;28;20045;-74
2021/08/14 00:11:55;;;;;;;14.45;5.15;;;;;;;16.35;72.08;101958.50;5003058;28;20101;-74
2021/08/14 00:14:20;;;;;;;8.07;4.68;;;;;;;16.31;72.29;101957.16;4996999;28;20018;-74
2021/08/14 00:16:46;;;;;;;10.30;5.15;;;;;;;16.30;72.15;101955.56;4978160;28;20033;-74
2021/08/14 00:19:11;;;;;;;9.63;4.90;;;;;;;16.28;72.36;101954.91;4991730;28;20117;-74
2021/08/14 00:21:37;;;;;;;9.65;5.03;;;;;;;16.26;72.34;101955.06;4994879;28;20044;-73
2021/08/14 00:24:03;;;;;;;14.20;5.95;;;;;;;16.25;72.42;101953.41;5013621;28;20526;-74
2021/08/14 00:26:29;;;;;;;10.80;4.65;;;;;;;16.25;72.36;101952.59;4997593;28;20030;-74
2021/08/14 00:28:54;;;;;;;13.90;5.50;;;;;;;16.22;72.53;101961.63;4993528;28;20380;-74
2021/08/14 00:31:20;;;;;;;10.05;5.95;;;;;;;16.19;72.84;101961.13;4992256;28;20065;-74
2021/08/14 00:33:45;;;;;;;14.10;5.22;;;;;;;16.15;72.87;101968.47;5006201;28;20026;-74
2021/08/14 00:36:11;;;;;;;14.45;5.25;;;;;;;16.10;72.92;101957.69;4985481;28;20038;-74
2021/08/14 00:38:36;;;;;;;7.93;4.57;;;;;;;16.06;73.11;101959.00;5006325;28;20062;-74
2021/08/14 00:41:02;;;;;;;10.80;5.00;;;;;;;16.03;73.16;101948.84;4999343;28;20030;-74
2021/08/14 00:43:28;;;;;;;11.27;5.28;;;;;;;16.03;72.57;101941.00;5003473;28;20060;-74
2021/08/14 00:45:53;;;;;;;17.33;6.07;;;;;;;15.95;72.99;101939.22;4981716;28;20467;-74
2021/08/14 00:48:21;;;;;;;14.25;5.15;;;;;;;15.93;73.46;101943.78;4986586;28;20035;-75
2021/08/14 00:50:47;;;;;;;11.30;5.20;;;;;;;15.89;73.65;101932.84;5002346;28;20056;-74
2021/08/14 00:53:13;;;;;;;11.55;5.32;;;;;;;15.88;73.76;101933.00;4996193;28;20510;-75
2021/08/14 00:55:44;;;;;;;9.93;5.18;;;;;;;15.86;73.53;101929.72;5005688;28;20034;-75
2021/08/14 00:58:10;;;;;;;11.75;5.00;;;;;;;15.85;73.62;101925.50;5003876;28;20042;-74
2021/08/14 01:00:36;;;;;;;12.18;4.90;;;;;;;15.84;73.68;101929.91;4986732;28;20033;-75
2021/08/14 01:03:03;;;;;;;13.32;5.03;;;;;;;15.81;73.77;101932.84;4992135;28;20442;-75
2021/08/14 01:05:29;;;;;;;10.40;4.28;;;;;;;15.73;74.28;101927.59;4993143;28;20034;-75
2021/08/14 01:07:54;;;;;;;8.88;4.80;;;;;;;15.68;74.53;101925.44;5009130;28;20033;-75
2021/08/14 01:10:22;;;;;;;12.02;5.15;;;;;;;15.67;74.56;101923.81;5013717;28;21166;-75
2021/08/14 01:12:51;;;;;;;12.40;5.72;;;;;;;15.63;74.73;101929.53;5002289;28;20120;-75
2021/08/14 01:15:17;;;;;;;15.90;5.60;;;;;;;15.61;74.85;101928.88;4997392;28;20038;-75
2021/08/14 01:17:43;;;;;;;10.65;5.43;;;;;;;15.60;74.87;101932.47;4998820;28;20314;-75
2021/08/14 01:20:09;;;;;;;8.82;5.03;;;;;;;15.58;74.85;101935.25;4995840;28;20045;-75
2021/08/14 01:22:36;;;;;;;14.98;5.32;;;;;;;15.55;74.68;101933.75;4982406;28;20436;-75
2021/08/14 01:25:06;;;;;;;15.07;5.65;;;;;;;15.52;74.75;101931.47;4993921;28;20034;-75
2021/08/14 01:27:34;;;;;;;11.50;5.55;;;;;;;15.51;74.79;101931.63;5001544;28;20042;-75
2021/08/14 01:29:59;;;;;;;10.48;4.63;;;;;;;15.45;75.08;101932.28;4998447;28;20108;-76
2021/08/14 01:32:25;;;;;;;8.48;4.95;;;;;;;15.41;75.30;101923.94;4996336;28;20253;-75
2021/08/14 01:34:52;;;;;;;10.32;5.15;;;;;;;15.42;75.17;101919.53;4967507;28;20045;-75
2021/08/14 01:37:17;;;;;;;12.50;5.72;;;;;;;15.43;75.12;101921.19;5004350;28;20038;-75
2021/08/14 01:39:43;;;;;;;9.50;4.95;;;;;;;15.42;74.98;101911.69;5003927;28;20033;-75
2021/08/14 01:42:14;;;;;;;10.10;5.47;;;;;;;15.40;75.13;101916.25;4995585;28;20038;-75
2021/08/14 01:44:40;;;;;;;9.95;5.45;;;;;;;15.36;75.40;101913.16;4983692;28;20460;-75
2021/08/14 01:47:06;;;;;;;11.40;5.50;;;;;;;15.31;75.55;101907.59;5000651;28;20034;-76
2021/08/14 01:49:31;;;;;;;9.93;5.45;;;;;;;15.28;75.68;101908.72;5003989;28;20547;-75
2021/08/14 01:51:57;;;;;;;11.55;5.47;;;;;;;15.28;75.33;101903.50;4990904;28;20034;-75
2021/08/14 01:54:22;;;;;;;12.23;5.70;;;;;;;15.28;75.35;101906.13;4991167;28;20487;-75
2021/08/14 01:56:51;;;;;;;11.40;5.60;;;;;;;15.23;75.50;101908.38;4994445;28;20056;-75
2021/08/14 01:59:17;;;;;;;10.80;6.07;;;;;;;15.19;75.95;101910.50;5005150;28;20505;-75
2021/08/14 02:01:43;;;;;;;19.73;6.88;;;;;;;15.18;76.07;101902.81;5001403;28;20061;-75
2021/08/14 02:04:09;;;;;;;16.92;6.93;;;;;;;15.18;75.81;101905.41;5001580;28;20034;-75
2021/08/14 02:06:35;;;;;;;12.93;6.15;;;;;;;15.16;75.94;101904.78;5009869;28;20049;-76
2021/08/14 02:09:01;;;;;;;13.18;6.28;;;;;;;15.14;76.08;101906.72;5007792;28;20025;-75
2021/08/14 02:11:30;;;;;;;10.50;5.30;;;;;;;15.09;76.44;101909.81;4978332;28;20121;-76
2021/08/14 02:13:56;;;;;;;12.02;6.22;;;;;;;15.08;76.49;101908.19;5006162;28;20040;-75
2021/08/14 02:16:22;;;;;;;10.05;5.45;;;;;;;15.04;76.45;101906.88;4973364;28;20037;-75
2021/08/14 02:18:48;;;;;;;11.30;5.25;;;;;;;15.02;76.44;101913.22;5009022;28;20380;-76
2021/08/14 02:21:14;;;;;;;8.60;5.57;;;;;;;14.96;76.45;101912.06;4971909;28;20057;-76
2021/08/14 02:23:40;;;;;;;9.73;5.25;;;;;;;14.87;76.30;101906.00;4984383;28;20034;-76
2021/08/14 02:26:06;;;;;;;8.35;4.85;;;;;;;14.76;76.34;101901.03;5005791;28;20033;-76
2021/08/14 02:28:33;;;;;;;9.45;5.40;;;;;;;14.71;76.26;101901.53;4994840;28;20496;-76
2021/08/14 02:31:00;;;;;;;10.95;4.82;;;;;;;14.70;76.11;101905.09;4986620;28;20041;-76
2021/08/14 02:33:27;;;;;;;10.10;4.65;;;;;;;14.71;76.17;101900.69;4989606;28;20109;-76
2021/08/14 02:35:52;;;;;;;9.80;5.10;;;;;;;14.70;76.18;101899.88;4980031;28;20148;-76
2021/08/14 02:38:18;;;;;;;10.73;5.75;;;;;;;14.71;76.28;101900.69;5004673;28;20125;-76
2021/08/14 02:40:48;;;;;;;9.70;5.57;;;;;;;14.73;76.24;101909.19;5007598;28;20025;-76
2021/08/14 02:43:15;;;;;;;10.90;5.57;;;;;;;14.74;76.36;101900.38;4978814;28;20077;-76
2021/08/14 02:45:41;;;;;;;8.88;5.75;;;;;;;14.75;76.51;101891.59;4992486;28;20120;-76
2021/08/14 02:48:07;;;;;;;14.13;5.93;;;;;;;14.77;76.65;101894.88;4994211;28;20136;-76
2021/08/14 02:50:32;;;;;;;16.13;6.00;;;;;;;14.72;77.21;101890.09;4991083;28;20081;-76
2021/08/14 02:52:58;;;;;;;11.25;5.80;;;;;;;14.69;77.24;101886.97;4984911;28;20021;-76
2021/08/14 02:55:25;;;;;;;15.23;6.22;;;;;;;14.69;77.49;101889.59;4998116;28;20026;-76
2021/08/14 02:57:50;;;;;;;10.65;6.03;;;;;;;14.68;77.38;101895.81;5007682;28;20503;-76
2021/08/14 03:00:16;;;;;;;11.25;5.82;;;;;;;14.64;77.52;101894.47;4981305;28;20037;-76
2021/08/14 03:02:42;;;;;;;10.88;5.95;;;;;;;14.57;78.05;101891.66;4996453;28;20111;-76
2021/08/14 03:05:08;;;;;;;12.57;5.85;;;;;;;14.53;78.24;101888.50;4997018;28;20061;-76
2021/08/14 03:07:34;;;;;;;9.75;5.47;;;;;;;14.52;78.17;101889.50;5006746;28;20037;-76
2021/08/14 03:09:59;;;;;;;9.52;5.43;;;;;;;14.51;78.27;101884.44;4999433;28;20026;-77
2021/08/14 03:12:25;;;;;;;14.57;6.00;;;;;;;14.47;78.67;101888.34;4994309;28;20390;-76
2021/08/14 03:14:51;;;;;;;13.00;5.93;;;;;;;14.43;78.74;101898.25;4983586;28;20125;-77
2021/08/14 03:17:16;;;;;;;12.45;5.65;;;;;;;14.41;78.84;101889.78;4984719;28;20036;-76
2021/08/14 03:19:42;;;;;;;11.93;5.50;;;;;;;14.42;78.75;101896.59;4989292;28;20483;-76
2021/08/14 03:22:09;;;;;;;13.93;5.68;;;;;;;14.41;78.64;101892.38;4999617;28;20541;-76
2021/08/14 03:24:35;;;;;;;14.38;6.63;;;;;;;14.41;78.49;101895.78;4988381;28;20032;-76
2021/08/14 03:27:00;;;;;;;14.38;6.47;;;;;;;14.39;78.28;101892.53;4986720;28;20125;-76
2021/08/14 03:29:26;;;;;;;11.68;5.35;;;;;;;14.38;78.42;101897.91;4998099;28;20040;-76
2021/08/14 03:31:51;;;;;;;12.52;5.63;;;;;;;14.37;78.25;101888.41;5001709;28;20024;-76
2021/08/14 03:34:17;;;;;;;9.68;5.65;;;;;;;14.38;78.31;101887.47;5007268;28;20508;-76
2021/08/14 03:36:42;;;;;;;11.57;5.68;;;;;;;14.36;78.28;101890.22;4990755;28;20029;-76
2021/08/14 03:39:08;;;;;;;16.42;6.07;;;;;;;14.35;78.20;101877.31;4996343;28;20026;-76
2021/08/14 03:41:34;;;;;;;9.85;5.50;;;;;;;14.34;78.16;101878.31;5007357;28;20030;-76
2021/08/14 03:44:01;;;;;;;11.02;5.57;;;;;;;14.32;78.35;101875.84;4985964;28;20037;-76
2021/08/14 03:46:26;;;;;;;13.07;5.55;;;;;;;14.30;78.56;101883.00;4986661;28;20180;-76
2021/08/14 03:48:52;;;;;;;12.63;5.85;;;;;;;14.32;78.47;101890.69;4996588;28;20483;-76
2021/08/14 03:51:17;;;;;;;10.50;4.97;;;;;;;14.31;78.35;101887.25;4972239;28;20034;-75
2021/08/14 03:53:43;;;;;;;10.45;5.63;;;;;;;14.28;78.36;101889.34;5000340;28;20060;-76
2021/08/14 03:56:08;;;;;;;10.85;5.53;;;;;;;14.28;78.26;101891.94;4994175;28;20017;-76
2021/08/14 03:58:34;;;;;;;15.73;6.57;;;;;;;14.27;78.16;101892.94;5000770;28;20037;-76
2021/08/14 04:01:03;;;;;;;12.60;5.35;;;;;;;14.29;78.21;101901.41;4995456;28;20044;-76
2021/08/14 04:03:30;;;;;;;11.13;4.72;;;;;;;14.28;78.28;101894.56;4991359;28;20057;-76
2021/08/14 04:05:56;;;;;;;10.05;5.20;;;;;;;14.26;78.48;101899.94;4983909;28;20026;-76
2021/08/14 04:08:21;;;;;;;10.73;5.20;;;;;;;14.25;78.67;101898.28;4986100;28;20044;-76
2021/08/14 04:10:47;;;;;;;12.85;5.72;;;;;;;14.26;78.74;101893.88;5006353;28;20415;-75
2021/08/14 04:13:12;;;;;;;12.23;4.85;;;;;;;14.25;78.41;101890.47;5005702;28;20025;-76
2021/08/14 04:15:38;;;;;;;11.88;5.43;;;;;;;14.27;78.30;101898.97;5008286;28;20156;-75
2021/08/14 04:18:04;;;;;;;16.88;5.55;;;;;;;14.24;78.51;101888.00;4998682;28;20041;-76
2021/08/14 04:20:30;;;;;;;13.98;4.65;;;;;;;14.23;78.45;101892.41;4982659;28;20030;-76
2021/08/14 04:22:55;;;;;;;13.38;6.00;;;;;;;14.19;78.34;101894.50;5005590;28;20454;-75
2021/08/14 04:25:21;;;;;;;12.50;4.80;;;;;;;14.15;78.99;101890.56;4999251;28;20442;-75
2021/08/14 04:27:46;;;;;;;12.73;5.15;;;;;;;14.13;79.17;101897.75;4997401;28;20033;-76
2021/08/14 04:30:12;;;;;;;12.35;4.95;;;;;;;14.14;79.22;101901.16;4985682;28;20041;-75
2021/08/14 04:32:38;;;;;;;12.52;5.10;;;;;;;14.13;79.07;101892.53;4997981;28;20034;-75
2021/08/14 04:35:09;;;;;;;12.77;4.93;;;;;;;14.14;79.03;101888.94;4990411;28;20030;-75
2021/08/14 04:37:35;;;;;;;11.88;5.35;;;;;;;14.13;79.02;101891.72;5003537;28;20029;-75
2021/08/14 04:40:01;;;;;;;11.75;5.38;;;;;;;14.11;79.07;101889.25;4982431;28;20036;-75
2021/08/14 04:42:27;;;;;;;13.23;4.40;;;;;;;14.11;79.25;101886.66;4988815;28;20038;-76
2021/08/14 04:44:53;;;;;;;12.10;4.85;;;;;;;14.11;79.13;101883.19;4976576;28;20119;-75
2021/08/14 04:47:18;;;;;;;14.93;4.85;;;;;;;14.12;79.01;101884.84;4996127;28;20034;-75
2021/08/14 04:49:44;;;;;;;12.25;5.38;;;;;;;14.12;79.08;101884.84;4987857;28;20042;-75
2021/08/14 04:52:09;;;;;;;13.63;4.93;;;;;;;14.12;78.85;101887.44;4993525;28;20320;-75
2021/08/14 04:54:35;;;;;;;16.40;5.93;;;;;;;14.13;78.76;101884.69;5009322;28;20079;-75
2021/08/14 04:57:00;;;;;;;14.05;4.85;;;;;;;14.14;78.80;101880.28;4981760;28;20042;-75
2021/08/14 04:59:26;;;;;;;11.02;4.75;;;;;;;14.12;78.93;101885.66;5001993;28;20034;-75
2021/08/14 05:01:51;;;;;;;8.27;4.45;;;;;;;14.13;79.06;101887.31;5003583;28;20379;-75
2021/08/14 05:04:17;;;;;;;10.45;4.95;;;;;;;14.13;78.96;101884.69;4982897;28;20038;-75
2021/08/14 05:06:42;;;;;;;12.70;5.53;;;;;;;14.13;79.08;101884.69;4986981;28;20045;-76
2021/08/14 05:09:08;;;;;;;24.63;6.53;;;;;;;14.12;79.36;101888.25;5000564;28;20439;-76
2021/08/14 05:11:33;;;;;;;14.95;5.38;;;;;;;14.14;79.18;101886.31;5005101;28;20026;-76
2021/08/14 05:13:59;;;;;;;14.95;6.05;;;;;;;14.17;79.04;101878.19;4993403;28;20033;-76
2021/08/14 05:16:25;;;;;;;11.65;4.60;;;;;;;14.20;78.98;101890.94;5001858;28;20036;-76
2021/08/14 05:18:53;;;;;;;18.00;5.30;;;;;;;14.24;78.98;101899.28;5008510;28;20040;-76
2021/08/14 05:21:19;;;;;;;13.85;4.68;;;;;;;14.26;78.83;101897.34;4994346;28;20034;-76
2021/08/14 05:23:45;;;;;;;10.70;4.70;;;;;;;14.30;78.75;101903.88;5008980;28;20471;-76
2021/08/14 05:26:10;;;;;;;9.70;4.60;;;;;;;14.32;78.61;101901.13;5002687;28;20039;-76
2021/08/14 05:28:36;;;;;;;20.02;5.38;;;;;;;14.34;79.09;101899.19;5007551;28;20037;-76
2021/08/14 05:31:01;;;;;;;10.00;4.55;;;;;;;14.36;79.04;101898.03;4988202;28;20041;-76
2021/08/14 05:33:26;;;;;;;18.65;6.13;;;;;;;14.40;79.14;101898.56;4996028;28;20041;-75
2021/08/14 05:35:52;;;;;;;13.88;5.22;;;;;;;14.44;78.91;101896.47;4982866;28;20481;-76
2021/08/14 05:38:18;;;;;;;11.40;5.25;;;;;;;14.46;79.29;101892.72;4992511;28;20048;-76
2021/08/14 05:40:43;;;;;;;15.90;4.70;;;;;;;14.52;78.98;101893.88;5007325;28;20021;-75
2021/08/14 05:43:08;;;;;;;13.38;4.32;;;;;;;14.53;79.17;101898.13;5017573;28;21292;-75
2021/08/14 05:45:34;;;;;;;19.13;5.15;;;;;;;14.56;79.03;101895.19;4983048;28;20022;-75
2021/08/14 05:48:04;;;;;;;15.50;4.80;;;;;;;14.59;78.83;101895.75;5004576;28;20037;-76
2021/08/14 05:50:31;;;;;;;16.58;5.15;;;;;;;14.63;78.63;101893.63;4979796;28;20030;-75
2021/08/14 05:52:56;;;;;;;10.88;4.32;;;;;;;14.66;78.41;101895.13;4991917;28;20034;-75
2021/08/14 05:55:22;;;;;;;10.85;3.90;;;;;;;14.71;78.39;101893.69;4989122;28;20401;-75
2021/08/14 05:57:49;;;;;;;19.45;5.45;;;;;;;14.77;78.15;101902.69;5001375;28;20372;-75
2021/08/14 06:00:15;;;;;;;15.23;5.60;;;;;;;14.89;78.34;101900.63;5004561;28;20049;-75
2021/08/14 06:02:40;;;;;;;15.63;4.82;;;;;;;15.20;77.95;101900.88;5010639;28;20037;-74
2021/08/14 06:05:07;;;;;;;13.60;4.05;;;;;;;15.72;76.79;101892.75;4998055;28;20033;-74
2021/08/14 06:07:32;;;;;;;12.60;5.55;;;;;;;16.35;74.30;101896.50;4982561;28;20110;-75
2021/08/14 06:09:58;;;;;;;15.07;3.92;;;;;;;16.87;72.29;101895.19;4999025;28;20091;-74
2021/08/14 06:12:23;;;;;;;9.30;4.45;;;;;;;17.33;70.84;101897.06;4998390;28;20038;-75
2021/08/14 06:14:49;;;;;;;15.73;5.07;;;;;;;17.64;69.75;101890.94;5010521;28;20420;-75
2021/08/14 06:17:15;;;;;;;9.23;3.65;;;;;;;17.96;68.39;101886.44;4988854;28;20392;-74
2021/08/14 06:19:40;;;;;;;12.20;4.00;;;;;;;18.18;67.46;101890.81;5004365;28;20100;-74
2021/08/14 06:22:06;;;;;;;13.68;3.85;;;;;;;18.42;66.34;101888.91;5004275;28;20045;-74
2021/08/14 06:24:31;;;;;;;12.80;4.25;;;;;;;18.52;65.49;101888.66;5008116;28;20068;-74
2021/08/14 06:26:57;;;;;;;16.02;4.13;;;;;;;18.58;65.60;101890.53;5001501;28;20090;-74
2021/08/14 06:29:22;;;;;;;12.25;3.63;;;;;;;18.72;64.93;101883.63;4997443;28;20053;-75
2021/08/14 06:31:48;;;;;;;13.85;3.88;;;;;;;18.81;65.02;101890.44;5001755;28;20034;-75
2021/08/14 06:34:14;;;;;;;17.52;4.82;;;;;;;18.87;63.43;101889.69;4985202;28;20538;-74
2021/08/14 06:36:39;;;;;;;16.23;6.03;;;;;;;18.77;62.24;101892.59;4989464;28;20041;-73
2021/08/14 06:39:05;;;;;;;15.98;3.50;;;;;;;18.52;63.88;101889.44;5013696;28;20030;-74
2021/08/14 06:41:30;;;;;;;11.20;3.10;;;;;;;18.32;64.60;101889.19;5013307;28;20522;-74
2021/08/14 06:43:55;;;;;;;10.00;2.97;;;;;;;18.06;65.68;101885.19;5002944;28;20113;-74
2021/08/14 06:46:21;;;;;;;8.65;4.00;;;;;;;17.88;66.55;101885.50;5013717;28;20041;-74
2021/08/14 06:48:46;;;;;;;15.88;3.47;;;;;;;17.78;67.69;101881.47;5007030;28;20029;-74
2021/08/14 06:51:13;;;;;;;13.63;3.83;;;;;;;17.82;67.42;101885.38;4977183;28;20216;-73
2021/08/14 06:53:39;;;;;;;13.32;3.42;;;;;;;17.85;66.56;101885.06;5016717;28;20025;-73
2021/08/14 06:56:05;;;;;;;17.40;5.60;;;;;;;18.04;67.10;101876.66;5004785;28;20700;-75
2021/08/14 06:58:30;;;;;;;14.32;4.20;;;;;;;18.09;66.09;101873.50;5000661;28;20031;-74
2021/08/14 07:00:56;;;;;;;10.90;3.03;;;;;;;18.17;65.85;101864.72;4994894;28;20400;-74
2021/08/14 07:03:21;;;;;;;10.15;2.83;;;;;;;18.45;64.23;101862.28;4997597;28;20029;-73
2021/08/14 07:05:47;;;;;;;8.35;3.00;;;;;;;18.78;62.77;101867.13;4990910;28;20037;-74
2021/08/14 07:08:12;;;;;;;9.60;2.72;;;;;;;19.20;62.14;101868.22;4980448;28;20044;-74
2021/08/14 07:10:38;;;;;;;9.35;2.95;;;;;;;19.93;59.42;101878.56;5006384;28;20029;-74
2021/08/14 07:13:03;;;;;;;9.93;2.92;;;;;;;20.70;57.49;101871.50;4993035;28;20099;-74
2021/08/14 07:15:29;;;;;;;8.48;2.97;;;;;;;21.52;55.84;101867.81;5004993;28;20022;-74
2021/08/14 07:17:55;;;;;;;8.40;2.78;;;;;;;22.30;53.93;101869.78;5004955;28;20029;-74
2021/08/14 07:20:20;;;;;;;13.50;3.50;;;;;;;22.78;52.37;101865.91;5003034;28;20033;-76
2021/08/14 07:22:46;;;;;;;8.68;2.75;;;;;;;23.19;49.95;101867.31;4993107;28;20030;-74
2021/08/14 07:25:11;;;;;;;9.90;3.75;;;;;;;23.40;47.82;101860.84;4998701;28;20029;-74
2021/08/14 07:27:37;;;;;;;8.82;2.50;;;;;;;23.69;48.06;101859.38;5013064;28;20056;-75
2021/08/14 07:30:03;;;;;;;14.20;2.65;;;;;;;23.94;48.38;101863.03;5004396;28;20033;-75
2021/08/14 07:32:29;;;;;;;13.00;2.80;;;;;;;24.37;47.40;101859.50;5010161;28;20109;-76
2021/08/14 07:34:55;;;;;;;9.43;2.53;;;;;;;24.41;45.91;101858.84;4991381;28;20080;-76
2021/08/14 07:37:20;;;;;;;9.15;3.15;;;;;;;24.74;44.89;101854.97;5011195;28;20033;-75
2021/08/14 07:39:46;;;;;;;9.00;2.83;;;;;;;24.81;44.60;101858.34;5003536;28;20038;-75
2021/08/14 07:42:12;;;;;;;8.55;2.40;;;;;;;24.72;44.31;101854.38;5006435;28;20037;-75
2021/08/14 07:44:37;;;;;;;9.52;2.88;;;;;;;24.91;43.63;101852.50;4982468;28;20064;-76
2021/08/14 07:47:03;;;;;;;9.05;2.67;;;;;;;24.89;43.22;101859.06;4992191;28;20041;-75
2021/08/14 07:49:29;;;;;;;9.98;2.63;;;;;;;24.81;43.62;101853.03;5003662;28;20027;-75
2021/08/14 07:51:54;;;;;;;11.13;3.00;;;;;;;25.32;43.75;101850.06;5009250;28;20537;-75
2021/08/14 07:54:20;;;;;;;9.73;3.08;;;;;;;25.60;42.43;101854.69;5001735;28;20038;-76
2021/08/14 07:56:45;;;;;;;14.75;3.50;;;;;;;25.60;41.90;101854.69;5015619;28;20038;-76
2021/08/14 07:59:11;;;;;;;8.38;2.35;;;;;;;26.05;41.62;101842.66;5010597;28;20038;-76
2021/08/14 08:01:36;;;;;;;9.95;2.58;;;;;;;25.90;39.79;101846.59;5014127;28;20120;-76
2021/08/14 08:04:02;;;;;;;8.38;3.08;;;;;;;26.02;41.58;101847.41;4976910;28;20525;-77
2021/08/14 08:06:27;;;;;;;8.35;2.20;;;;;;;26.28;40.27;101847.13;4989344;28;20034;-77
2021/08/14 08:08:53;;;;;;;6.20;2.17;;;;;;;26.09;39.68;101852.59;4988051;28;20633;-76
2021/08/14 08:11:18;;;;;;;7.40;2.65;;;;;;;26.18;40.57;101861.81;5005424;28;20057;-76
2021/08/14 08:13:43;;;;;;;12.15;2.72;;;;;;;26.49;39.76;101857.09;5003956;28;20326;-76
2021/08/14 08:16:09;;;;;;;8.43;2.60;;;;;;;26.58;40.73;101853.00;4983229;28;20029;-77
2021/08/14 08:18:34;;;;;;;10.23;3.03;;;;;;;26.75;40.27;101860.25;4997622;28;20041;-76
2021/08/14 08:21:00;;;;;;;9.93;2.25;;;;;;;26.95;39.55;101855.25;5008224;28;20529;-76
2021/08/14 08:23:25;;;;;;;6.47;2.38;;;;;;;27.21;37.68;101852.22;5005425;28;20026;-77
2021/08/14 08:25:51;;;;;;;7.38;2.70;;;;;;;27.38;38.14;101845.06;4997658;28;20095;-77
2021/08/14 08:28:21;;;;;;;9.73;2.95;;;;;;;27.79;36.74;101845.63;5001656;28;20033;-77
2021/08/14 08:30:48;;;;;;;5.93;2.03;;;;;;;28.02;36.56;101844.59;5005123;28;20061;-77
2021/08/14 08:33:14;;;;;;;5.28;2.10;;;;;;;28.07;36.30;101846.53;4988768;28;20411;-75
2021/08/14 08:35:39;;;;;;;10.63;2.92;;;;;;;27.89;36.24;101844.97;4980542;28;20036;-76
2021/08/14 08:38:05;;;;;;;8.07;2.90;;;;;;;28.09;37.51;101842.56;4980399;28;20049;-76
2021/08/14 08:40:36;;;;;;;10.73;2.30;;;;;;;28.17;35.90;101838.66;5004705;28;20026;-76
2021/08/14 08:43:01;;;;;;;9.02;2.33;;;;;;;27.87;34.58;101833.72;4991672;28;20041;-76
2021/08/14 08:45:27;;;;;;;7.32;2.22;;;;;;;27.61;34.30;101845.91;5001609;28;20033;-75
2021/08/14 08:47:53;;;;;;;8.07;2.10;;;;;;;27.83;35.43;101845.94;4986024;28;20037;-76
2021/08/14 08:50:19;;;;;;;7.93;2.80;;;;;;;27.93;35.96;101846.91;4995421;28;20594;-75
2021/08/14 08:52:44;;;;;;;7.97;2.42;;;;;;;28.09;35.69;101842.56;5014034;28;20354;-77
2021/08/14 08:55:12;;;;;;;6.75;2.85;;;;;;;27.95;34.44;101836.00;4989917;28;20492;-76
2021/08/14 08:57:38;;;;;;;9.40;2.38;;;;;;;28.08;35.53;101832.94;5007403;28;20065;-76
2021/08/14 09:00:04;;;;;;;8.48;2.88;;;;;;;28.04;35.28;101831.84;4986607;28;20036;-76
2021/08/14 09:02:30;;;;;;;5.93;2.22;;;;;;;28.22;35.36;101832.56;4989073;28;20033;-75
2021/08/14 09:05:14;;;;;;;8.93;2.72;;;;;;;28.14;34.73;101825.81;5006055;28;20037;-77
2021/08/14 09:07:40;;;;;;;11.05;3.05;;;;;;;28.35;35.49;101827.66;5002458;28;20084;-76
2021/08/14 09:10:23;;;;;;;7.68;2.22;;;;;;;28.39;35.54;101825.31;4990794;28;20037;-75
2021/08/14 09:12:50;;;;;;;8.00;2.33;;;;;;;28.32;33.85;101820.16;4978374;28;20038;-77
2021/08/14 09:15:35;;;;;;;8.20;2.22;;;;;;;28.11;36.00;101815.66;4993850;28;20514;-77
2021/08/14 09:18:03;;;;;;;6.03;2.17;;;;;;;28.11;33.33;101824.47;5012044;28;20353;-76
2021/08/14 09:20:30;;;;;;;8.70;2.28;;;;;;;27.98;34.70;101832.03;4991224;28;20068;-76
2021/08/14 09:23:04;;;;;;;5.57;1.77;;;;;;;27.60;32.81;101831.00;4991491;28;20044;-78
2021/08/14 09:25:50;;;;;;;7.40;3.03;;;;;;;27.77;34.18;101827.22;5007777;28;20088;-77
2021/08/14 09:28:37;;;;;;;7.60;1.98;;;;;;;27.78;33.26;101828.03;5007773;28;20495;-76
2021/08/14 09:31:05;;;;;;;7.07;2.35;;;;;;;28.13;35.04;101826.88;5008202;28;20179;-76
2021/08/14 09:33:34;;;;;;;7.63;2.03;;;;;;;27.95;33.80;101828.00;4987894;28;20037;-76
2021/08/14 09:36:05;;;;;;;7.00;2.20;;;;;;;28.01;33.43;101820.88;4996729;28;20164;-75
2021/08/14 09:38:38;;;;;;;8.48;2.60;;;;;;;27.93;34.45;101822.09;4979991;28;20026;-77
2021/08/14 09:41:15;;;;;;;6.63;2.00;;;;;;;27.77;34.84;101815.78;5008690;28;20095;-77
2021/08/14 09:43:42;;;;;;;9.40;2.83;;;;;;;27.99;34.14;101818.47;4976135;28;20041;-76
2021/08/14 09:46:08;;;;;;;6.57;2.38;;;;;;;28.15;33.74;101822.09;5008972;28;20034;-76
2021/08/14 09:48:33;;;;;;;7.60;2.42;;;;;;;28.10;34.03;101822.84;4987104;28;20087;-78
2021/08/14 09:50:59;;;;;;;6.47;2.55;;;;;;;27.96;35.22;101816.28;5002217;28;20033;-76
2021/08/14 09:53:28;;;;;;;6.60;2.00;;;;;;;27.69;34.15;101818.84;4982463;28;20458;-77
2021/08/14 09:56:11;;;;;;;9.75;2.38;;;;;;;27.55;35.20;101813.06;4984998;28;20022;-76
2021/08/14 09:58:38;;;;;;;7.88;2.22;;;;;;;27.27;34.60;101812.13;4980526;28;20134;-76
2021/08/14 10:01:05;;;;;;;7.10;1.77;;;;;;;27.47;34.46;101805.50;4993040;28;20398;-77
2021/08/14 10:03:33;;;;;;;7.80;2.03;;;;;;;27.58;32.80;101794.75;5003442;28;20284;-76
2021/08/14 10:05:59;;;;;;;7.78;2.53;;;;;;;27.62;35.37;101791.59;4979749;28;20026;-76
2021/08/14 10:08:26;;;;;;;8.50;2.05;;;;;;;27.55;35.23;101800.56;4987437;28;20038;-75
2021/08/14 10:10:53;;;;;;;6.93;2.17;;;;;;;27.61;35.05;101796.09;4982418;28;20034;-76
2021/08/14 10:13:20;;;;;;;10.00;2.70;;;;;;;27.49;35.41;101787.44;5004498;28;20103;-76
2021/08/14 10:15:45;;;;;;;5.68;1.85;;;;;;;27.45;35.60;101791.66;4987882;28;20199;-79
2021/08/14 10:18:11;;;;;;;6.60;2.10;;;;;;;27.19;36.32;101792.03;4985866;28;20026;-76
2021/08/14 10:20:37;;;;;;;7.13;2.38;;;;;;;27.32;35.99;101796.25;4986664;28;20034;-76
2021/08/14 10:23:09;;;;;;;4.05;1.52;;;;;;;27.43;33.63;101791.88;4998132;28;20025;-74
2021/08/14 10:25:37;;;;;;;6.43;2.40;;;;;;;27.43;34.54;101793.75;4997749;28;20092;-75
2021/08/14 10:28:05;;;;;;;7.88;1.80;;;;;;;27.55;33.96;101789.09;4981434;28;20449;-76
2021/08/14 10:30:48;;;;;;;6.22;2.13;;;;;;;27.33;35.12;101783.72;5000366;28;20038;-76
2021/08/14 10:33:28;;;;;;;3.88;1.42;;;;;;;27.05;34.61;101795.28;5007428;28;20362;-76
2021/08/14 10:35:55;;;;;;;7.05;2.35;;;;;;;27.49;34.11;101779.44;4984513;28;20113;-76
2021/08/14 10:38:36;;;;;;;7.55;1.70;;;;;;;27.42;33.23;101784.94;4999269;28;21159;-76
2021/08/14 10:41:02;;;;;;;6.60;1.98;;;;;;;27.29;32.57;101783.41;5010899;28;20255;-76
2021/08/14 10:43:57;;;;;;;5.85;1.88;;;;;;;27.15;34.25;101776.81;5000954;28;20040;-75
2021/08/14 10:46:41;;;;;;;4.43;1.75;;;;;;;27.24;33.86;101780.69;5008850;28;20033;-77
2021/08/14 10:49:11;;;;;;;4.53;1.92;;;;;;;27.35;33.54;101787.78;5006282;28;20603;-76
2021/08/14 10:51:52;;;;;;;10.18;2.10;;;;;;;27.11;33.04;101775.69;4996784;28;20124;-76
2021/08/14 10:54:29;;;;;;;4.05;1.60;;;;;;;26.97;34.00;101772.53;4987954;28;20049;-76
2021/08/14 10:57:12;;;;;;;7.45;2.15;;;;;;;26.96;34.03;101782.38;4980266;28;20120;-78
2021/08/14 10:59:40;;;;;;;11.30;1.98;;;;;;;27.02;34.39;101788.59;4993949;28;20026;-79
2021/08/14 11:02:28;;;;;;;5.70;1.90;;;;;;;27.05;34.96;101785.44;5001356;28;20404;-75
2021/08/14 11:05:00;;;;;;;5.50;2.38;;;;;;;27.07;34.79;101779.84;5002915;28;20080;-77
2021/08/14 11:07:25;;;;;;;6.50;3.05;;;;;;;27.61;34.28;101772.13;5003109;28;20041;-76
2021/08/14 11:09:54;;;;;;;6.40;2.55;;;;;;;27.63;37.24;101771.88;4985138;28;20590;-76
2021/08/14 11:12:42;;;;;;;5.10;2.10;;;;;;;27.50;34.18;101765.88;5013086;28;20099;-77
2021/08/14 11:15:17;;;;;;;10.85;2.00;;;;;;;27.52;33.79;101774.44;4999775;28;20045;-75
2021/08/14 11:17:45;;;;;;;6.85;1.85;;;;;;;27.60;34.50;101772.41;4980238;28;20522;-76
2021/08/14 11:20:20;;;;;;;8.18;2.03;;;;;;;27.57;39.89;101773.69;5015119;28;20116;-78
2021/08/14 11:22:46;;;;;;;13.93;2.30;;;;;;;27.41;35.84;101764.69;5002311;28;20396;-76